Bode, Iowa
Current Conditions -  °F | °C
As of 10:55 PM on Saturday 22 Nov 2014 (Local Time) from KAXA Reporting Station
Haze Haze  
Wind Chill: 50°   Ceiling: 400
Heat Index: 50°   Visibility: 4mi
Dew Point: 50°   Wind: 16mph
Humidity: 100%   Direction: 190°S
Pressure: 29.55"   Gusts: NA
Location:  42.87°N, 94.29°W
Report Text: KAXA 230455Z AUTO 19014KT 4SM BR OVC004 10/10 A2955 RMK AO2
Loading
Personal Weather Stations






























Interactive Weather Map New forecast layout! Learn more

10-Day Weather Forecast

Advertisements
Track Severe Weather on mobile